createdAt,value
2019-05-09T00:01:30.529Z,2.60
2019-05-09T00:05:34.832Z,2.80
2019-05-09T00:09:39.119Z,3.93
2019-05-09T00:13:43.714Z,2.57
2019-05-09T00:17:47.974Z,2.10
2019-05-09T00:21:54.057Z,2.40
2019-05-09T00:25:58.311Z,2.57
2019-05-09T00:30:03.826Z,4.07
2019-05-09T00:34:10.789Z,3.40
2019-05-09T00:38:15.376Z,3.13
2019-05-09T00:42:20.101Z,2.13
2019-05-09T00:46:30.664Z,2.27
2019-05-09T00:50:34.861Z,2.60
2019-05-09T00:54:39.136Z,2.23
2019-05-09T00:58:44.044Z,2.73
2019-05-09T01:02:48.580Z,2.13
2019-05-09T01:06:54.002Z,4.03
2019-05-09T01:11:11.119Z,1.83
2019-05-09T01:15:05.230Z,2.47
2019-05-09T01:19:09.463Z,4.07
2019-05-09T01:23:14.358Z,3.17
2019-05-09T01:27:18.711Z,4.23
2019-05-09T01:31:24.007Z,2.83
2019-05-09T01:35:28.729Z,1.80
2019-05-09T01:39:33.771Z,3.33
2019-05-09T01:43:38.400Z,3.53
2019-05-09T01:47:43.103Z,2.30
2019-05-09T01:51:47.384Z,2.73
2019-05-09T01:55:58.415Z,2.63
2019-05-09T02:00:04.149Z,2.03
2019-05-09T02:04:08.601Z,3.37
2019-05-09T02:08:14.230Z,2.67
2019-05-09T02:12:18.700Z,2.33
2019-05-09T02:16:43.218Z,5.17
2019-05-09T02:20:47.689Z,3.07
2019-05-09T02:24:53.462Z,2.83
2019-05-09T02:28:57.824Z,3.20
2019-05-09T02:33:04.822Z,2.60
2019-05-09T02:37:09.250Z,3.13
2019-05-09T02:41:13.616Z,2.50
2019-05-09T02:45:19.234Z,4.43
2019-05-09T02:49:23.812Z,2.77
2019-05-09T02:53:28.902Z,2.20
2019-05-09T02:57:33.848Z,3.20
2019-05-09T03:01:45.483Z,2.57
2019-05-09T03:05:52.963Z,4.13
2019-05-09T03:09:58.278Z,2.57
2019-05-09T03:14:02.692Z,2.20
2019-05-09T03:18:08.923Z,3.07
2019-05-09T03:22:18.797Z,2.70
2019-05-09T03:26:29.329Z,6.00
2019-05-09T03:30:39.399Z,4.67
2019-05-09T03:34:42.246Z,2.40
2019-05-09T03:38:47.591Z,2.50
2019-05-09T03:42:51.903Z,2.43
2019-05-09T03:47:17.916Z,2.50
2019-05-09T03:51:22.121Z,3.27
2019-05-09T03:55:33.718Z,4.47
2019-05-09T03:59:38.218Z,3.07
2019-05-09T04:03:42.517Z,2.53
2019-05-09T04:07:47.878Z,3.33
2019-05-09T04:11:52.340Z,4.03
2019-05-09T04:15:58.241Z,3.80
2019-05-09T04:20:02.729Z,2.60
2019-05-09T04:24:08.501Z,3.70
2019-05-09T04:28:12.936Z,4.50
2019-05-09T04:32:18.308Z,2.83
2019-05-09T04:36:38.674Z,2.93
2019-05-09T04:40:45.044Z,2.47
2019-05-09T04:45:03.496Z,3.57
2019-05-09T04:49:08.079Z,2.83
2019-05-09T04:53:11.934Z,3.67
2019-05-09T04:57:17.885Z,5.43
2019-05-09T05:01:32.128Z,3.73
2019-05-09T05:05:37.136Z,2.37
2019-05-09T05:09:42.835Z,2.80
2019-05-09T05:13:48.143Z,3.63
2019-05-09T05:17:52.562Z,2.87
2019-05-09T05:22:01.112Z,2.20
2019-05-09T05:26:05.399Z,2.70
2019-05-09T05:30:10.220Z,2.70
2019-05-09T05:34:27.410Z,3.80
2019-05-09T05:38:31.756Z,4.07
2019-05-09T05:42:38.559Z,3.67
2019-05-09T05:47:01.219Z,4.43
2019-05-09T05:51:07.999Z,5.07
2019-05-09T05:55:12.153Z,4.03
2019-05-09T05:59:17.873Z,4.03
2019-05-09T06:03:22.210Z,4.60
2019-05-09T06:07:28.501Z,4.63
2019-05-09T06:11:32.843Z,2.97
2019-05-09T06:15:38.013Z,2.73
2019-05-09T06:19:42.535Z,4.67
2019-05-09T06:23:48.247Z,2.07
2019-05-09T06:27:52.568Z,1.47
2019-05-09T06:31:58.453Z,1.53
2019-05-09T06:36:02.995Z,0.80
2019-05-09T06:40:08.078Z,1.90
2019-05-09T06:44:31.536Z,1.23
2019-05-09T06:48:37.812Z,0.90
2019-05-09T06:52:42.245Z,0.80
2019-05-09T06:56:47.536Z,1.53
2019-05-09T07:00:58.409Z,0.40
2019-05-09T07:05:08.371Z,1.50
2019-05-09T07:09:38.448Z,0.40
2019-05-09T07:13:42.807Z,0.53
2019-05-09T07:17:48.221Z,0.67
2019-05-09T07:22:23.816Z,1.67
2019-05-09T07:26:31.448Z,0.40
2019-05-09T07:30:43.157Z,0.40
2019-05-09T07:34:51.906Z,0.50
2019-05-09T07:38:58.286Z,0.60
2019-05-09T07:43:02.333Z,0.73
2019-05-09T07:47:07.963Z,0.90
2019-05-09T07:51:12.612Z,0.40
2019-05-09T07:55:18.058Z,0.97
2019-05-09T07:59:22.541Z,0.47
2019-05-09T08:03:27.558Z,1.23
2019-05-09T08:07:33.167Z,0.90
2019-05-09T08:11:37.834Z,0.90
2019-05-09T08:15:42.251Z,0.50
2019-05-09T08:19:48.479Z,0.57
2019-05-09T08:23:52.842Z,1.13
2019-05-09T08:27:58.848Z,1.13
2019-05-09T08:32:03.074Z,2.43
2019-05-09T08:36:09.165Z,0.50
2019-05-09T08:40:13.732Z,0.57
2019-05-09T08:44:18.662Z,0.60
2019-05-09T08:48:23.429Z,0.30
2019-05-09T08:52:28.776Z,1.03
2019-05-09T08:56:33.224Z,0.30
2019-05-09T09:00:39.140Z,0.60
2019-05-09T09:04:44.077Z,0.40
2019-05-09T09:08:48.521Z,0.30
2019-05-09T09:12:52.791Z,0.37
2019-05-09T09:16:57.666Z,3.27
2019-05-09T09:21:02.901Z,0.47
2019-05-09T09:25:07.919Z,0.43
2019-05-09T09:29:12.255Z,0.30
2019-05-09T09:33:17.592Z,0.40
2019-05-09T09:37:22.045Z,0.33
2019-05-09T09:41:28.535Z,0.30
2019-05-09T09:45:32.333Z,0.20
2019-05-09T09:49:38.462Z,0.40
2019-05-09T09:53:42.887Z,0.20
2019-05-09T09:57:48.446Z,0.20
2019-05-09T10:01:54.155Z,0.20
2019-05-09T10:05:58.480Z,0.30
2019-05-09T10:10:02.739Z,0.50
2019-05-09T10:14:08.755Z,0.97
2019-05-09T10:18:35.209Z,0.47
2019-05-09T10:22:45.972Z,0.70
2019-05-09T10:27:13.714Z,0.30
2019-05-09T10:31:18.022Z,0.97
2019-05-09T10:35:27.831Z,0.53
2019-05-09T10:39:31.585Z,1.00
2019-05-09T10:44:00.568Z,1.07
2019-05-09T10:48:04.846Z,0.67
2019-05-09T10:52:09.072Z,0.47
2019-05-09T10:56:13.350Z,0.50
2019-05-09T11:00:18.422Z,0.30
2019-05-09T11:04:22.705Z,0.30
2019-05-09T11:08:28.651Z,0.50
2019-05-09T11:12:33.075Z,0.47
2019-05-09T11:16:44.839Z,0.53
2019-05-09T11:20:43.287Z,0.70
2019-05-09T11:24:50.987Z,0.40
2019-05-09T11:28:53.628Z,1.53
2019-05-09T11:32:59.785Z,0.43
2019-05-09T11:37:03.930Z,1.03
2019-05-09T11:41:08.382Z,0.40
2019-05-09T11:45:12.906Z,0.30
2019-05-09T11:49:18.012Z,0.60
2019-05-09T11:53:22.412Z,0.60
2019-05-09T11:57:28.630Z,0.60
2019-05-09T12:01:32.676Z,0.50
2019-05-09T12:05:37.891Z,0.63
2019-05-09T12:09:42.308Z,1.23
2019-05-09T12:13:48.666Z,0.30
2019-05-09T12:17:58.174Z,0.33
2019-05-09T12:21:58.564Z,0.63
2019-05-09T12:26:02.953Z,1.53
2019-05-09T12:30:08.249Z,0.60
2019-05-09T12:34:12.535Z,0.33
2019-05-09T12:38:18.079Z,2.33
2019-05-09T12:42:22.767Z,0.70
2019-05-09T12:46:28.426Z,0.60
2019-05-09T12:50:32.905Z,0.40
2019-05-09T12:54:38.669Z,0.50
2019-05-09T12:58:43.034Z,0.40
2019-05-09T13:02:47.329Z,0.77
2019-05-09T13:06:51.616Z,0.40
2019-05-09T13:10:58.140Z,0.50
2019-05-09T13:15:02.519Z,0.40
2019-05-09T13:19:08.377Z,8.53
2019-05-09T13:23:12.580Z,4.60
2019-05-09T13:27:18.968Z,0.50
2019-05-09T13:31:23.580Z,1.00
2019-05-09T13:35:27.918Z,0.43
2019-05-09T13:39:32.275Z,0.63
2019-05-09T13:43:45.800Z,1.00
2019-05-09T13:47:42.625Z,0.60
2019-05-09T13:51:57.578Z,1.17
2019-05-09T13:55:53.206Z,0.60
2019-05-09T13:59:59.612Z,1.23
2019-05-09T14:04:03.983Z,0.63
2019-05-09T14:08:11.625Z,0.60
2019-05-09T14:12:14.365Z,1.07
2019-05-09T14:16:22.000Z,2.10
2019-05-09T14:20:24.655Z,0.50
2019-05-09T14:24:29.030Z,1.20
2019-05-09T14:28:34.124Z,0.80
2019-05-09T14:32:40.077Z,1.33
2019-05-09T14:36:46.030Z,0.70
2019-05-09T14:40:50.642Z,0.93
2019-05-09T14:44:55.101Z,1.23
2019-05-09T14:48:59.425Z,0.80
2019-05-09T14:53:03.659Z,0.60
2019-05-09T14:57:09.717Z,0.57
2019-05-09T15:01:13.976Z,0.50
2019-05-09T15:05:18.999Z,0.50
2019-05-09T15:09:23.340Z,0.60
2019-05-09T15:13:28.600Z,0.60
2019-05-09T15:17:33.036Z,0.65
2019-05-09T15:21:38.203Z,1.10
2019-05-09T15:25:42.735Z,0.67
2019-05-09T15:29:48.677Z,0.60
2019-05-09T15:33:53.000Z,1.80
2019-05-09T15:37:59.026Z,0.70
2019-05-09T15:42:03.303Z,0.70
2019-05-09T15:46:27.807Z,1.30
2019-05-09T15:50:32.692Z,0.40
2019-05-09T15:54:38.660Z,1.73
2019-05-09T15:58:43.039Z,0.60
2019-05-09T16:02:48.492Z,0.90
2019-05-09T16:06:53.155Z,0.77
2019-05-09T16:10:58.081Z,0.73
2019-05-09T16:15:02.795Z,2.63
2019-05-09T16:19:08.940Z,3.12
2019-05-09T16:23:13.201Z,0.60
2019-05-09T16:27:17.468Z,0.60
2019-05-09T16:31:21.876Z,0.90
2019-05-09T16:35:28.611Z,1.90
2019-05-09T16:39:32.547Z,1.40
2019-05-09T16:43:39.166Z,0.57
2019-05-09T16:47:42.864Z,0.53
2019-05-09T16:51:48.601Z,1.03
2019-05-09T16:55:52.963Z,0.80
2019-05-09T16:59:57.245Z,1.20
2019-05-09T17:04:01.517Z,1.27
2019-05-09T17:08:08.175Z,1.00
2019-05-09T17:12:12.094Z,2.20
2019-05-09T17:16:17.802Z,1.93
2019-05-09T17:20:27.784Z,1.87
2019-05-09T17:24:31.975Z,1.50
2019-05-09T17:28:37.650Z,3.13
2019-05-09T17:32:42.294Z,1.23
2019-05-09T17:36:46.888Z,1.30
2019-05-09T17:40:51.154Z,2.60
2019-05-09T17:44:57.790Z,1.33
2019-05-09T17:49:01.403Z,1.13
2019-05-09T17:53:05.667Z,1.63
2019-05-09T17:57:10.331Z,1.10
2019-05-09T18:01:14.620Z,2.10
2019-05-09T18:05:18.947Z,1.97
2019-05-09T18:09:23.702Z,2.67
2019-05-09T18:13:31.812Z,1.50
2019-05-09T18:17:38.274Z,2.50
2019-05-09T18:21:50.563Z,0.90
2019-05-09T18:25:49.420Z,2.30
2019-05-09T18:29:54.000Z,0.83
2019-05-09T18:34:01.653Z,1.07
2019-05-09T18:38:07.942Z,1.00
2019-05-09T18:42:12.507Z,0.80
2019-05-09T18:46:17.943Z,0.77
2019-05-09T18:50:23.044Z,3.13
2019-05-09T18:54:27.571Z,2.63
2019-05-09T18:58:31.902Z,2.40
2019-05-09T19:02:37.089Z,3.17
2019-05-09T19:06:41.377Z,2.33
2019-05-09T19:10:45.673Z,1.90
2019-05-09T19:14:51.297Z,2.43
2019-05-09T19:19:07.787Z,3.47
2019-05-09T19:23:12.240Z,2.80
2019-05-09T19:27:16.694Z,2.37
2019-05-09T19:31:20.943Z,2.93
2019-05-09T19:35:25.329Z,2.47
2019-05-09T19:39:29.660Z,2.83
2019-05-09T19:43:34.092Z,1.30
2019-05-09T19:47:39.473Z,1.83
2019-05-09T19:51:43.895Z,1.53
2019-05-09T19:55:48.194Z,2.13
2019-05-09T19:59:52.484Z,2.43
2019-05-09T20:03:56.695Z,1.83
2019-05-09T20:08:01.054Z,1.87
2019-05-09T20:12:39.711Z,1.43
2019-05-09T20:16:47.303Z,2.77
2019-05-09T20:20:52.200Z,2.17
2019-05-09T20:24:56.623Z,3.10
2019-05-09T20:29:01.127Z,1.27
2019-05-09T20:33:06.460Z,4.00
2019-05-09T20:37:10.858Z,1.87
2019-05-09T20:41:15.279Z,1.70
2019-05-09T20:45:19.748Z,1.57
2019-05-09T20:49:24.180Z,1.67
2019-05-09T20:53:28.636Z,2.00
2019-05-09T20:57:33.106Z,2.93
2019-05-09T21:01:37.659Z,1.73
2019-05-09T21:05:42.089Z,2.67
2019-05-09T21:09:46.541Z,2.50
2019-05-09T21:13:51.024Z,1.97
2019-05-09T21:17:55.515Z,2.00
2019-05-09T21:21:59.919Z,3.10
2019-05-09T21:26:04.424Z,3.70
2019-05-09T21:30:09.500Z,2.97
2019-05-09T21:34:13.986Z,2.00
2019-05-09T21:38:18.270Z,3.00
2019-05-09T21:42:22.545Z,1.77
2019-05-09T21:46:26.807Z,4.10
2019-05-09T21:50:31.103Z,4.07
2019-05-09T21:54:35.322Z,2.63
2019-05-09T21:58:39.627Z,2.37
2019-05-09T22:02:44.126Z,4.07
2019-05-09T22:06:48.610Z,0.97
2019-05-09T22:10:53.071Z,1.10
2019-05-09T22:14:57.348Z,2.40
2019-05-09T22:19:01.629Z,1.90
2019-05-09T22:23:06.562Z,2.20
2019-05-09T22:27:11.072Z,1.30
2019-05-09T22:31:15.338Z,0.80
2019-05-09T22:35:19.587Z,0.73
2019-05-09T22:39:24.055Z,2.03
2019-05-09T22:43:28.312Z,0.83
2019-05-09T22:47:32.562Z,0.70
2019-05-09T22:51:36.834Z,0.77
2019-05-09T22:55:41.203Z,2.10
2019-05-09T22:59:45.663Z,0.30
2019-05-09T23:03:50.025Z,0.20
2019-05-09T23:07:54.275Z,0.50
2019-05-09T23:11:58.531Z,0.30
2019-05-09T23:16:02.944Z,0.20
2019-05-09T23:20:09.421Z,0.67
2019-05-09T23:24:28.053Z,0.50
2019-05-09T23:28:22.208Z,0.20
2019-05-09T23:32:46.057Z,0.30
2019-05-09T23:36:50.324Z,0.30
2019-05-09T23:40:54.567Z,0.47
2019-05-09T23:44:58.769Z,0.37
2019-05-09T23:49:03.038Z,0.30
2019-05-09T23:53:07.478Z,0.20
2019-05-09T23:57:29.966Z,0.77
